Bradley, South Dakota
Current Conditions -  °F | °C
As of 6:53 AM on Friday 31 Oct 2014 (Local Time) from KATY Reporting Station
Clear Clear  
Wind Chill:   Ceiling: Unl
Heat Index: 16°   Visibility: 10mi
Dew Point: 13°   Wind: 5mph
Humidity: 88%   Direction: 10°N
Pressure: 30.54"   Gusts: NA
Location:  45.09°N, 97.64°W
Report Text: KATY 311153Z AUTO 01004KT 10SM CLR M09/M11 A3054 RMK AO2 SLP370 T10891106 11050 21094 50007
Loading
Personal Weather Stations






























Interactive Weather Map
Tropical Storm Tracking
New forecast layout! Learn more

10-Day Weather Forecast

Advertisements
Track Severe Weather on mobile